Time;durP1;ratioP1;P1;durP2;ratioP2;P2;SDS_P1;SDS_P2;PMS_P1;PMS_P2;Temp;Humidity;BMP_temperature;BMP_pressure;BME280_temperature;BME280_humidity;BME280_pressure;Samples;Min_cycle;Max_cycle;Signal;HPM_P1;HPM_P2
2022/09/30 00:01:06;;;;;;;5.77;4.37;;;9.00;84.00;;;;;;4955038;28;20967;-85
2022/09/30 00:03:33;;;;;;;4.53;4.10;;;8.90;84.40;;;;;;4974970;28;20458;-85
2022/09/30 00:06:02;;;;;;;4.50;3.87;;;9.00;84.00;;;;;;4951748;28;20535;-85
2022/09/30 00:08:35;;;;;;;4.20;3.80;;;9.10;83.80;;;;;;4956852;28;20477;-85
2022/09/30 00:11:04;;;;;;;5.93;4.73;;;9.10;83.50;;;;;;4954467;28;20517;-85
2022/09/30 00:13:34;;;;;;;4.30;3.90;;;9.10;83.30;;;;;;4957294;28;20469;-85
2022/09/30 00:16:02;;;;;;;6.00;4.10;;;9.10;83.30;;;;;;4973934;28;20459;-85
2022/09/30 00:18:29;;;;;;;6.00;4.40;;;9.00;83.40;;;;;;4953779;28;20856;-85
2022/09/30 00:20:56;;;;;;;8.30;4.57;;;9.00;84.10;;;;;;4952710;28;20529;-85
2022/09/30 00:23:23;;;;;;;5.03;4.50;;;9.00;83.80;;;;;;4969064;28;20469;-85
2022/09/30 00:25:56;;;;;;;4.60;4.13;;;9.00;83.90;;;;;;4954630;28;20474;-85
2022/09/30 00:28:22;;;;;;;5.13;4.50;;;9.00;83.60;;;;;;4967706;28;20541;-85
2022/09/30 00:30:49;;;;;;;5.07;4.57;;;9.00;83.80;;;;;;4956017;28;20872;-85
2022/09/30 00:33:15;;;;;;;7.83;5.37;;;9.00;83.70;;;;;;4954141;28;20466;-85
2022/09/30 00:35:42;;;;;;;7.10;4.73;;;9.00;83.40;;;;;;4956774;28;20901;-85
2022/09/30 00:38:09;;;;;;;6.40;4.97;;;9.00;83.40;;;;;;4969521;28;20470;-85
2022/09/30 00:40:38;;;;;;;5.57;5.03;;;8.90;83.60;;;;;;4955274;28;20513;-85
2022/09/30 00:43:18;;;;;;;4.93;4.50;;;8.90;84.20;;;;;;4956132;28;21052;-85
2022/09/30 00:45:56;;;;;;;4.30;3.90;;;8.70;84.40;;;;;;4970762;28;20469;-85
2022/09/30 00:48:34;;;;;;;5.03;4.07;;;8.60;84.30;;;;;;4968752;28;20552;-86
2022/09/30 00:51:04;;;;;;;5.07;4.57;;;8.60;84.60;;;;;;4948705;28;20466;-85
2022/09/30 00:53:46;;;;;;;4.33;3.90;;;8.70;83.80;;;;;;4954136;28;20529;-85
2022/09/30 00:56:20;;;;;;;3.90;3.50;;;8.60;84.00;;;;;;4954247;28;20465;-85
2022/09/30 00:58:53;;;;;;;4.10;3.13;;;8.60;83.60;;;;;;4969087;28;20459;-85
2022/09/30 01:01:21;;;;;;;5.37;3.70;;;8.70;82.70;;;;;;4954056;28;20465;-85
2022/09/30 01:03:53;;;;;;;4.73;3.70;;;8.70;82.00;;;;;;4971805;28;20461;-85
2022/09/30 01:06:22;;;;;;;5.73;3.60;;;8.70;82.20;;;;;;4956294;28;20521;-85
2022/09/30 01:08:49;;;;;;;5.23;3.83;;;8.70;82.10;;;;;;4954254;28;20541;-85
2022/09/30 01:11:16;;;;;;;5.50;3.53;;;8.60;82.70;;;;;;4954601;28;20461;-84
2022/09/30 01:13:47;;;;;;;3.90;3.60;;;8.40;82.90;;;;;;4952347;28;22082;-85
2022/09/30 01:16:25;;;;;;;4.47;3.47;;;8.20;83.70;;;;;;4966140;28;20900;-85
2022/09/30 01:19:04;;;;;;;4.13;3.73;;;7.90;84.70;;;;;;4966440;28;20552;-85
2022/09/30 01:21:53;;;;;;;8.67;4.50;;;7.70;85.70;;;;;;4967846;28;20526;-88
2022/09/30 01:24:25;;;;;;;8.10;3.97;;;7.70;86.30;;;;;;4964242;28;20865;-88
2022/09/30 01:27:11;;;;;;;4.57;3.60;;;8.00;85.20;;;;;;4957460;28;20883;-88
2022/09/30 01:30:10;;;;;;;5.50;3.40;;;8.00;84.90;;;;;;4952218;28;20528;-87
2022/09/30 01:32:57;;;;;;;6.03;3.73;;;8.10;84.60;;;;;;4969324;28;21229;-88
2022/09/30 01:35:26;;;;;;;5.67;4.70;;;8.00;84.80;;;;;;4968264;28;20465;-88
2022/09/30 01:38:04;;;;;;;4.80;3.80;;;7.80;85.50;;;;;;4950315;28;20470;-88
2022/09/30 01:40:48;;;;;;;4.70;4.20;;;7.90;85.80;;;;;;4952216;28;20503;-87
2022/09/30 01:43:41;;;;;;;4.50;4.00;;;8.00;85.40;;;;;;4951640;28;20478;-88
2022/09/30 01:46:32;;;;;;;6.80;3.87;;;8.10;84.80;;;;;;4953982;28;20474;-87
2022/09/30 01:49:19;;;;;;;5.40;3.23;;;8.20;84.40;;;;;;4969388;28;20494;-87
2022/09/30 01:51:57;;;;;;;3.97;3.50;;;8.20;84.50;;;;;;4967565;28;20465;-88
2022/09/30 01:54:23;;;;;;;6.00;4.57;;;8.20;84.40;;;;;;4950738;28;20618;-88
2022/09/30 01:56:57;;;;;;;4.73;3.70;;;8.30;83.70;;;;;;4948629;28;20463;-88
2022/09/30 01:59:39;;;;;;;7.87;3.97;;;8.30;83.40;;;;;;4952911;28;20521;-88
2022/09/30 02:02:30;;;;;;;4.80;4.17;;;8.30;83.60;;;;;;4955407;28;20920;-87
2022/09/30 02:05:06;;;;;;;4.47;3.90;;;8.30;83.80;;;;;;4952288;28;20490;-88
2022/09/30 02:07:45;;;;;;;4.40;4.00;;;8.30;84.00;;;;;;4954421;28;20473;-87
2022/09/30 02:10:40;;;;;;;3.97;3.57;;;8.30;83.80;;;;;;4952339;28;20516;-90
2022/09/30 02:13:21;;;;;;;4.37;3.57;;;8.10;84.00;;;;;;4951645;28;20528;-90
2022/09/30 02:15:51;;;;;;;4.27;3.60;;;;;;;;;;4949601;28;20603;-90
2022/09/30 02:18:24;;;;;;;3.80;3.40;;;;;;;;;;4971240;28;20486;-89
2022/09/30 02:20:54;;;;;;;4.60;4.13;;;;;;;;;;4970107;28;20485;-89
2022/09/30 02:23:31;;;;;;;7.20;4.03;;;8.20;83.80;;;;;;4975862;28;20509;-89
2022/09/30 02:26:06;;;;;;;6.17;4.80;;;8.20;83.80;;;;;;4968976;28;20467;-89
2022/09/30 02:28:39;;;;;;;4.37;3.83;;;8.10;83.80;;;;;;4965094;28;20556;-89
2022/09/30 02:31:09;;;;;;;4.67;4.27;;;7.90;84.50;;;;;;4968371;28;20540;-89
2022/09/30 02:33:58;;;;;;;5.50;4.20;;;7.70;84.80;;;;;;4970815;28;20545;-90
2022/09/30 02:36:30;;;;;;;4.10;3.57;;;7.70;85.00;;;;;;4945743;28;20454;-89
2022/09/30 02:39:03;;;;;;;4.43;4.03;;;7.70;84.30;;;;;;4952527;28;20474;-90
2022/09/30 02:41:35;;;;;;;4.30;3.90;;;7.50;84.80;;;;;;4952615;28;20510;-90
2022/09/30 02:44:02;;;;;;;7.13;4.37;;;7.40;85.30;;;;;;4972189;28;20467;-90
2022/09/30 02:47:01;;;;;;;4.53;4.13;;;7.40;85.90;;;;;;4957645;28;20823;-89
2022/09/30 02:49:38;;;;;;;5.60;4.17;;;7.60;85.30;;;;;;4947372;28;20498;-89
2022/09/30 02:52:17;;;;;;;6.63;4.70;;;7.70;84.20;;;;;;4971049;28;20489;-90
2022/09/30 02:54:52;;;;;;;5.27;4.00;;;7.80;83.80;;;;;;4953264;28;20466;-89
2022/09/30 02:57:19;;;;;;;4.17;3.80;;;7.80;83.50;;;;;;4971711;28;20536;-89
2022/09/30 02:59:50;;;;;;;5.03;4.40;;;7.70;84.00;;;;;;4958523;28;20453;-90
2022/09/30 03:02:17;;;;;;;4.43;3.60;;;7.80;83.90;;;;;;4958177;28;20548;-89
2022/09/30 03:04:46;;;;;;;4.50;3.93;;;7.80;83.80;;;;;;4957962;28;20505;-90
2022/09/30 03:07:13;;;;;;;4.70;4.30;;;7.90;83.80;;;;;;4955794;28;20552;-89
2022/09/30 03:09:40;;;;;;;5.13;3.83;;;7.80;83.50;;;;;;4957060;28;20556;-89
2022/09/30 03:12:13;;;;;;;4.77;3.80;;;7.70;83.90;;;;;;4955081;28;20449;-90
2022/09/30 03:14:59;;;;;;;5.80;4.00;;;7.60;84.30;;;;;;4973815;28;20450;-90
2022/09/30 03:17:37;;;;;;;5.47;4.30;;;7.50;85.00;;;;;;4973155;28;20532;-90
2022/09/30 03:20:48;;;;;;;3.87;3.37;;;7.40;84.80;;;;;;4970892;28;20508;-89
2022/09/30 03:23:34;;;;;;;4.40;3.93;;;7.30;85.30;;;;;;4952819;28;20529;-89
2022/09/30 03:26:33;;;;;;;5.83;4.60;;;7.40;85.00;;;;;;4953472;28;20469;-89
2022/09/30 03:29:41;;;;;;;5.80;4.57;;;7.40;85.10;;;;;;4952451;28;20569;-90
2022/09/30 03:32:26;;;;;;;6.47;5.07;;;7.60;84.40;;;;;;4946426;28;20462;-90
2022/09/30 03:35:03;;;;;;;5.03;4.43;;;7.60;84.20;;;;;;4971608;28;20873;-90
2022/09/30 03:37:44;;;;;;;5.37;4.50;;;7.60;84.20;;;;;;4970711;28;20493;-89
2022/09/30 03:40:37;;;;;;;4.77;4.27;;;7.60;84.30;;;;;;4971687;28;20524;-89
2022/09/30 03:43:10;;;;;;;5.23;4.73;;;7.60;83.80;;;;;;4951617;28;20473;-89
2022/09/30 03:45:56;;;;;;;5.40;4.37;;;7.60;84.30;;;;;;4970058;28;20470;-89
2022/09/30 03:48:26;;;;;;;4.20;3.90;;;7.60;84.40;;;;;;4969028;28;21081;-89
2022/09/30 03:50:53;;;;;;;7.90;4.60;;;7.70;83.70;;;;;;4958555;28;20462;-90
2022/09/30 03:53:20;;;;;;;5.23;4.40;;;7.70;83.90;;;;;;4967798;28;20552;-89
2022/09/30 03:55:50;;;;;;;7.40;4.73;;;7.70;83.80;;;;;;4973092;28;20521;-89
2022/09/30 03:58:19;;;;;;;5.10;4.60;;;7.70;83.60;;;;;;4953988;28;20556;-89
2022/09/30 04:00:51;;;;;;;4.33;3.93;;;7.70;83.80;;;;;;4955807;28;20514;-89
2022/09/30 04:03:20;;;;;;;6.67;5.13;;;7.70;83.90;;;;;;4956972;28;20466;-90
2022/09/30 04:05:47;;;;;;;6.43;5.03;;;7.70;84.20;;;;;;4970543;28;20497;-90
2022/09/30 04:08:14;;;;;;;4.60;4.10;;;7.60;84.00;;;;;;4973295;28;20552;-90
2022/09/30 04:10:45;;;;;;;6.37;4.37;;;7.60;84.30;;;;;;4955886;28;20541;-89
2022/09/30 04:13:12;;;;;;;4.60;4.10;;;7.50;84.00;;;;;;4956006;28;20504;-89
2022/09/30 04:15:39;;;;;;;5.20;4.37;;;7.40;84.80;;;;;;4955366;28;20463;-90
2022/09/30 04:18:06;;;;;;;5.53;5.00;;;7.40;84.30;;;;;;4955787;28;20494;-89
2022/09/30 04:20:33;;;;;;;6.63;4.30;;;7.30;85.00;;;;;;4970812;28;20486;-90
2022/09/30 04:23:00;;;;;;;5.37;4.43;;;7.40;84.60;;;;;;4955631;28;20901;-89
2022/09/30 04:25:27;;;;;;;4.00;3.60;;;7.40;84.60;;;;;;4955788;28;20529;-89
2022/09/30 04:27:55;;;;;;;5.37;4.17;;;7.50;83.80;;;;;;4975600;28;20509;-89
2022/09/30 04:30:21;;;;;;;5.80;4.90;;;7.50;83.50;;;;;;4955769;28;20525;-89
2022/09/30 04:32:53;;;;;;;4.93;4.53;;;7.40;83.20;;;;;;4972647;28;20461;-89
2022/09/30 04:35:20;;;;;;;4.63;4.23;;;7.10;84.40;;;;;;4952143;28;20526;-90
2022/09/30 04:37:47;;;;;;;5.60;4.30;;;6.90;85.70;;;;;;4959127;28;20505;-89
2022/09/30 04:40:15;;;;;;;8.53;5.60;;;6.90;86.10;;;;;;4956215;28;21236;-89
2022/09/30 04:42:42;;;;;;;6.17;4.47;;;7.00;85.70;;;;;;4968801;28;20502;-89
2022/09/30 04:45:11;;;;;;;4.00;3.60;;;7.10;85.00;;;;;;4953871;28;20524;-89
2022/09/30 04:47:41;;;;;;;4.87;4.47;;;7.20;84.10;;;;;;4955590;28;21007;-89
2022/09/30 04:50:08;;;;;;;5.10;3.80;;;7.10;84.30;;;;;;4955198;28;20971;-89
2022/09/30 04:52:35;;;;;;;8.33;4.63;;;6.90;84.90;;;;;;4953907;28;20509;-89
2022/09/30 04:55:01;;;;;;;4.43;3.57;;;7.00;84.50;;;;;;4973925;28;20505;-89
2022/09/30 04:57:28;;;;;;;6.40;3.90;;;7.00;84.20;;;;;;4970693;28;20470;-90
2022/09/30 04:59:54;;;;;;;5.20;3.97;;;7.00;84.40;;;;;;4972222;28;20458;-89
2022/09/30 05:02:21;;;;;;;6.10;3.97;;;7.10;84.00;;;;;;4953513;28;20535;-89
2022/09/30 05:04:48;;;;;;;5.80;5.10;;;7.10;83.60;;;;;;4956121;28;20458;-89
2022/09/30 05:07:14;;;;;;;5.27;4.70;;;6.90;84.30;;;;;;4955122;28;20470;-89
2022/09/30 05:09:41;;;;;;;7.77;5.80;;;6.80;84.90;;;;;;4953377;28;20494;-89
2022/09/30 05:12:09;;;;;;;10.20;6.90;;;6.80;85.20;;;;;;4948927;28;20509;-89
2022/09/30 05:14:36;;;;;;;8.87;7.97;;;6.80;85.20;;;;;;4965735;28;20466;-89
2022/09/30 05:17:03;;;;;;;8.50;7.27;;;6.70;85.50;;;;;;4953657;28;20560;-89
2022/09/30 05:19:30;;;;;;;7.60;6.90;;;6.60;85.60;;;;;;4969327;28;20472;-89
2022/09/30 05:21:56;;;;;;;7.97;6.73;;;6.70;86.00;;;;;;4950273;28;20537;-90
2022/09/30 05:24:23;;;;;;;8.93;6.03;;;6.80;85.00;;;;;;4953118;28;20514;-89
2022/09/30 05:26:50;;;;;;;7.47;5.47;;;6.90;84.60;;;;;;4952356;28;20509;-89
2022/09/30 05:29:16;;;;;;;8.80;5.90;;;6.90;84.60;;;;;;4952739;28;20493;-89
2022/09/30 05:31:43;;;;;;;8.50;5.77;;;7.00;83.90;;;;;;4952236;28;20468;-89
2022/09/30 05:34:10;;;;;;;10.60;8.80;;;7.10;83.80;;;;;;4952912;28;20557;-89
2022/09/30 05:36:36;;;;;;;15.47;9.87;;;7.10;83.90;;;;;;4952948;28;20465;-89
2022/09/30 05:39:03;;;;;;;12.37;8.80;;;7.10;84.10;;;;;;4955942;28;20524;-89
2022/09/30 05:41:30;;;;;;;14.23;10.03;;;7.10;84.30;;;;;;4953750;28;20474;-89
2022/09/30 05:44:00;;;;;;;15.53;10.00;;;6.90;84.50;;;;;;4957655;28;21022;-89
2022/09/30 05:46:27;;;;;;;15.97;9.57;;;6.80;85.30;;;;;;4956080;28;21032;-89
2022/09/30 05:48:54;;;;;;;12.90;9.10;;;6.70;85.80;;;;;;4956601;28;20541;-89
2022/09/30 05:51:21;;;;;;;12.53;8.13;;;6.70;86.20;;;;;;4973139;28;20532;-90
2022/09/30 05:53:48;;;;;;;9.00;6.97;;;6.80;85.90;;;;;;4971812;28;20454;-89
2022/09/30 05:56:14;;;;;;;11.40;6.40;;;6.70;86.00;;;;;;4957686;28;20450;-89
2022/09/30 05:58:41;;;;;;;6.80;4.93;;;6.80;86.80;;;;;;4950602;28;20502;-89
2022/09/30 06:01:12;;;;;;;6.63;5.33;;;6.90;86.90;;;;;;4956785;28;20536;-89
2022/09/30 06:03:44;;;;;;;6.20;4.73;;;7.00;87.30;;;;;;4953355;28;20466;-89
2022/09/30 06:06:12;;;;;;;6.53;4.93;;;7.10;87.20;;;;;;4968814;28;20505;-89
2022/09/30 06:08:40;;;;;;;5.77;4.70;;;7.20;87.20;;;;;;4955517;28;20521;-89
2022/09/30 06:11:12;;;;;;;5.57;5.07;;;7.30;87.10;;;;;;4950173;28;20584;-89
2022/09/30 06:13:40;;;;;;;5.37;4.57;;;7.30;87.00;;;;;;4967949;28;20462;-89
2022/09/30 06:16:08;;;;;;;5.50;5.00;;;7.40;87.00;;;;;;4957097;28;20489;-90
2022/09/30 06:18:35;;;;;;;8.00;5.63;;;7.40;87.00;;;;;;4970705;28;20489;-89
2022/09/30 06:21:03;;;;;;;7.47;5.03;;;7.30;86.90;;;;;;4955085;28;20462;-89
2022/09/30 06:23:31;;;;;;;7.23;5.17;;;7.30;87.30;;;;;;4956029;28;20498;-90
2022/09/30 06:25:57;;;;;;;7.90;6.50;;;7.40;87.30;;;;;;4972922;28;20458;-90
2022/09/30 06:28:26;;;;;;;8.63;6.50;;;7.60;86.70;;;;;;4969440;28;20532;-90
2022/09/30 06:30:53;;;;;;;6.20;5.10;;;7.70;86.30;;;;;;4950953;28;20501;-90
2022/09/30 06:33:20;;;;;;;8.67;5.70;;;7.70;86.20;;;;;;4971643;28;20960;-89
2022/09/30 06:35:47;;;;;;;6.10;5.50;;;7.70;86.50;;;;;;4956273;28;20453;-89
2022/09/30 06:38:14;;;;;;;5.10;4.70;;;7.70;86.50;;;;;;4969274;28;20524;-89
2022/09/30 06:40:44;;;;;;;8.30;4.50;;;7.80;86.40;;;;;;4955235;28;20443;-89
2022/09/30 06:43:11;;;;;;;5.50;5.00;;;7.80;86.40;;;;;;4952011;28;20458;-89
2022/09/30 06:45:38;;;;;;;7.77;5.50;;;7.80;86.40;;;;;;4954840;28;20497;-90
2022/09/30 06:48:08;;;;;;;5.27;4.50;;;7.70;87.00;;;;;;4954884;28;21071;-90
2022/09/30 06:50:37;;;;;;;8.70;6.50;;;7.70;87.50;;;;;;4953547;28;20569;-89
2022/09/30 06:53:06;;;;;;;7.07;6.37;;;7.70;87.90;;;;;;4954495;28;20457;-89
2022/09/30 06:55:38;;;;;;;7.53;5.70;;;7.90;87.40;;;;;;4953817;28;21436;-90
2022/09/30 06:58:13;;;;;;;6.30;5.10;;;8.00;87.00;;;;;;4956459;28;20521;-90
2022/09/30 07:00:39;;;;;;;6.00;5.37;;;7.90;86.90;;;;;;4969936;28;20496;-89
2022/09/30 07:03:18;;;;;;;8.07;5.40;;;7.90;87.60;;;;;;4970153;28;20470;-90
2022/09/30 07:05:45;;;;;;;7.70;6.80;;;8.00;87.70;;;;;;4954749;28;20516;-90
2022/09/30 07:08:11;;;;;;;6.60;5.70;;;8.10;87.40;;;;;;4951291;28;20498;-89
2022/09/30 07:10:38;;;;;;;8.63;6.43;;;8.10;87.40;;;;;;4969580;28;20544;-89
2022/09/30 07:13:05;;;;;;;13.07;5.73;;;8.20;87.50;;;;;;4951291;28;20976;-89
2022/09/30 07:15:32;;;;;;;7.33;6.20;;;8.20;87.70;;;;;;4953787;28;20467;-90
2022/09/30 07:17:59;;;;;;;5.80;4.90;;;8.20;87.70;;;;;;4952740;28;20486;-89
2022/09/30 07:20:26;;;;;;;7.20;6.50;;;8.20;87.90;;;;;;4956923;28;20465;-87
2022/09/30 07:22:52;;;;;;;6.60;5.80;;;8.30;88.10;;;;;;4952171;28;20517;-87
2022/09/30 07:25:19;;;;;;;8.70;6.27;;;8.20;88.30;;;;;;4952325;28;20521;-87
2022/09/30 07:27:46;;;;;;;8.17;6.50;;;8.30;88.60;;;;;;4949769;28;20481;-87
2022/09/30 07:30:13;;;;;;;8.30;5.43;;;8.30;88.60;;;;;;4953928;28;20974;-87
2022/09/30 07:32:52;;;;;;;6.20;5.57;;;8.40;88.60;;;;;;4962969;28;20472;-87
2022/09/30 07:35:19;;;;;;;7.00;5.77;;;8.50;88.30;;;;;;4957001;28;20446;-87
2022/09/30 07:37:45;;;;;;;6.97;6.30;;;8.50;88.30;;;;;;4957098;28;20498;-87
2022/09/30 07:40:12;;;;;;;11.30;6.70;;;8.60;88.30;;;;;;4960360;28;20454;-87
2022/09/30 07:42:44;;;;;;;9.07;5.87;;;8.70;88.30;;;;;;4970682;28;20438;-87
2022/09/30 07:45:15;;;;;;;6.27;5.67;;;8.70;88.20;;;;;;4955225;28;20470;-87
2022/09/30 07:47:42;;;;;;;6.60;5.93;;;8.70;88.10;;;;;;4959041;28;21121;-87
2022/09/30 07:50:09;;;;;;;9.33;6.27;;;8.80;88.20;;;;;;4973078;28;20525;-87
2022/09/30 07:52:36;;;;;;;14.23;6.70;;;9.00;87.90;;;;;;4955130;28;20461;-87
2022/09/30 07:55:03;;;;;;;7.70;6.63;;;9.00;87.60;;;;;;4957704;28;20500;-88
2022/09/30 07:57:30;;;;;;;7.43;6.73;;;9.10;87.60;;;;;;4956987;28;20462;-88
2022/09/30 07:59:56;;;;;;;9.37;7.63;;;9.10;87.50;;;;;;4958524;28;20459;-88
2022/09/30 08:02:23;;;;;;;6.03;5.43;;;9.20;87.40;;;;;;4968364;28;20505;-87
2022/09/30 08:04:50;;;;;;;7.37;6.60;;;9.20;87.30;;;;;;4960202;28;20449;-87
2022/09/30 08:07:17;;;;;;;8.03;6.77;;;9.30;87.20;;;;;;4958049;28;20902;-87
2022/09/30 08:09:44;;;;;;;13.30;7.00;;;9.40;87.20;;;;;;4955774;28;20548;-87
2022/09/30 08:12:11;;;;;;;10.53;6.77;;;9.40;87.10;;;;;;4956493;28;20466;-86
2022/09/30 08:14:38;;;;;;;7.90;6.53;;;9.50;86.90;;;;;;4959908;28;20466;-87
2022/09/30 08:17:05;;;;;;;13.23;7.50;;;9.50;86.70;;;;;;4957026;28;20483;-88
2022/09/30 08:19:32;;;;;;;10.10;8.80;;;9.60;86.80;;;;;;4975227;28;20490;-88
2022/09/30 08:21:59;;;;;;;14.67;10.00;;;9.70;86.60;;;;;;4972467;28;20462;-87
2022/09/30 08:24:26;;;;;;;13.70;9.80;;;9.70;86.50;;;;;;4974476;28;20485;-87
2022/09/30 08:26:53;;;;;;;11.43;9.57;;;9.80;86.20;;;;;;4972144;28;20494;-87
2022/09/30 08:29:20;;;;;;;12.60;10.33;;;9.90;86.10;;;;;;4973554;28;20501;-87
2022/09/30 08:32:07;;;;;;;11.63;8.27;;;10.00;85.90;;;;;;4972262;28;20815;-87
2022/09/30 08:34:34;;;;;;;10.17;9.10;;;10.10;85.60;;;;;;4957185;28;20501;-87
2022/09/30 08:37:02;;;;;;;14.03;10.07;;;10.20;85.30;;;;;;4958269;28;20455;-88
2022/09/30 08:39:35;;;;;;;13.63;9.17;;;10.20;85.00;;;;;;4975444;28;20978;-88
2022/09/30 08:42:32;;;;;;;12.03;9.60;;;10.30;84.80;;;;;;4958508;28;20526;-88
2022/09/30 08:45:12;;;;;;;11.70;8.50;;;10.40;84.70;;;;;;4951361;28;20497;-87
2022/09/30 08:47:59;;;;;;;10.20;8.37;;;10.50;84.30;;;;;;4955205;28;20509;-87
2022/09/30 08:50:52;;;;;;;11.27;8.63;;;10.60;84.10;;;;;;4953046;28;20554;-87
2022/09/30 08:53:29;;;;;;;10.70;9.50;;;10.60;83.90;;;;;;4974900;28;20466;-87
2022/09/30 08:56:01;;;;;;;12.60;9.17;;;10.60;83.70;;;;;;4957014;28;20507;-87
2022/09/30 08:58:31;;;;;;;10.60;8.57;;;10.70;83.70;;;;;;4956361;28;20470;-87
2022/09/30 09:01:37;;;;;;;13.20;9.70;;;10.70;83.70;;;;;;4950936;28;20964;-88
2022/09/30 09:04:05;;;;;;;12.73;9.27;;;10.70;83.70;;;;;;4948360;28;20898;-88
2022/09/30 09:06:38;;;;;;;13.50;9.07;;;10.80;84.00;;;;;;4970239;28;20881;-87
2022/09/30 09:09:31;;;;;;;10.30;9.13;;;10.80;83.90;;;;;;4969889;28;20458;-88
2022/09/30 09:12:04;;;;;;;13.73;10.60;;;10.90;83.90;;;;;;4973417;28;20493;-87
2022/09/30 09:15:02;;;;;;;11.37;9.40;;;10.90;83.70;;;;;;4954810;28;20513;-88
2022/09/30 09:17:37;;;;;;;16.23;9.87;;;11.00;83.60;;;;;;4969976;28;20894;-88
2022/09/30 09:20:14;;;;;;;11.40;8.87;;;11.00;83.80;;;;;;4958028;28;20552;-88
2022/09/30 09:22:43;;;;;;;14.43;10.53;;;11.10;83.70;;;;;;4970969;28;20502;-88
2022/09/30 09:25:14;;;;;;;15.60;9.87;;;11.20;83.50;;;;;;4957698;28;20483;-88
2022/09/30 09:28:10;;;;;;;11.47;10.27;;;11.20;83.70;;;;;;4972603;28;20465;-88
2022/09/30 09:30:44;;;;;;;12.80;9.73;;;11.20;83.70;;;;;;4943781;28;20517;-88
2022/09/30 09:33:26;;;;;;;12.40;10.40;;;11.40;83.00;;;;;;4955323;28;20453;-88
2022/09/30 09:36:23;;;;;;;14.67;10.40;;;11.50;82.40;;;;;;4948763;28;20473;-88
2022/09/30 09:39:05;;;;;;;15.43;10.17;;;11.50;82.20;;;;;;4953692;28;20459;-88
2022/09/30 09:41:58;;;;;;;12.47;9.80;;;11.50;82.30;;;;;;4954665;28;20454;-88
2022/09/30 09:44:43;;;;;;;13.53;9.93;;;11.60;82.00;;;;;;4971381;28;20470;-88
2022/09/30 09:47:16;;;;;;;15.63;9.67;;;11.60;82.00;;;;;;4970556;28;20449;-88
2022/09/30 09:49:43;;;;;;;14.80;10.83;;;11.70;82.10;;;;;;4955204;28;20486;-88
2022/09/30 09:52:13;;;;;;;12.50;9.23;;;11.70;82.10;;;;;;4971122;28;20520;-88
2022/09/30 09:54:46;;;;;;;13.43;10.30;;;11.70;82.10;;;;;;4970752;28;20465;-88
2022/09/30 09:57:16;;;;;;;10.90;9.67;;;11.80;82.10;;;;;;4953308;28;20548;-88
2022/09/30 10:03:17;;;;;;;11.20;9.27;;;11.90;82.00;;;;;;4973666;28;20551;-88
2022/09/30 10:05:57;;;;;;;11.77;9.30;;;12.00;81.90;;;;;;4953181;28;20466;-88
2022/09/30 10:08:23;;;;;;;10.37;9.27;;;12.10;81.40;;;;;;4970859;28;20470;-88
2022/09/30 10:10:52;;;;;;;14.27;10.47;;;12.30;80.60;;;;;;4955300;28;20505;-88
2022/09/30 10:13:22;;;;;;;10.60;8.97;;;12.30;80.70;;;;;;4955435;28;20518;-88
2022/09/30 10:15:55;;;;;;;11.93;8.90;;;12.40;80.70;;;;;;4955598;28;20466;-88
2022/09/30 10:18:36;;;;;;;12.37;9.20;;;12.50;80.60;;;;;;4970525;28;20474;-88
2022/09/30 10:21:22;;;;;;;11.57;8.87;;;12.70;80.50;;;;;;4971594;28;20528;-88
2022/09/30 10:23:48;;;;;;;9.60;8.60;;;12.80;80.00;;;;;;4972016;28;20466;-88
2022/09/30 10:26:21;;;;;;;9.90;8.10;;;12.90;79.60;;;;;;4975661;28;20489;-88
2022/09/30 10:28:53;;;;;;;10.10;8.00;;;13.10;78.70;;;;;;4970812;28;21164;-87
2022/09/30 10:31:31;;;;;;;9.40;7.57;;;13.20;78.40;;;;;;4954960;28;20497;-88
2022/09/30 10:34:07;;;;;;;9.60;7.03;;;13.40;77.90;;;;;;4971852;28;20493;-88
2022/09/30 10:36:36;;;;;;;11.43;7.63;;;13.50;76.90;;;;;;4956119;28;20586;-88
2022/09/30 10:39:07;;;;;;;9.43;6.83;;;13.60;76.50;;;;;;4952177;28;20439;-88
2022/09/30 10:41:37;;;;;;;8.43;6.20;;;13.60;75.70;;;;;;4971533;28;20508;-88
2022/09/30 10:44:12;;;;;;;8.53;6.17;;;13.60;75.50;;;;;;4972888;28;20469;-88
2022/09/30 10:46:40;;;;;;;9.87;6.27;;;13.60;75.20;;;;;;4954789;28;20463;-88
2022/09/30 10:49:39;;;;;;;9.43;6.67;;;13.60;75.00;;;;;;4954820;28;20478;-88
2022/09/30 10:52:19;;;;;;;7.93;4.90;;;13.60;75.00;;;;;;4949720;28;20466;-89
2022/09/30 10:54:57;;;;;;;6.67;5.27;;;13.60;74.80;;;;;;4971562;28;20462;-88
2022/09/30 10:57:37;;;;;;;5.77;4.93;;;13.60;74.70;;;;;;4964410;28;20458;-88
2022/09/30 11:00:11;;;;;;;8.20;5.30;;;13.60;74.50;;;;;;4956929;28;20462;-88
2022/09/30 11:02:48;;;;;;;5.80;5.13;;;13.60;74.60;;;;;;4970999;28;20489;-88
2022/09/30 11:05:23;;;;;;;10.47;5.50;;;13.60;74.50;;;;;;4955004;28;20473;-88
2022/09/30 11:08:18;;;;;;;8.10;5.30;;;13.60;74.10;;;;;;4957131;28;20866;-88
2022/09/30 11:11:22;;;;;;;4.90;4.30;;;13.60;74.10;;;;;;4969570;28;20522;-88
2022/09/30 11:14:00;;;;;;;6.20;4.40;;;13.60;74.10;;;;;;4972560;28;20501;-88
2022/09/30 11:16:48;;;;;;;5.73;4.70;;;13.50;73.90;;;;;;4976669;28;20548;-87
2022/09/30 11:19:29;;;;;;;7.03;6.07;;;13.50;74.10;;;;;;4965009;28;20462;-88
2022/09/30 11:22:36;;;;;;;7.50;5.03;;;13.60;73.10;;;;;;4957400;28;20509;-88
2022/09/30 11:25:03;;;;;;;6.00;4.97;;;13.70;72.50;;;;;;4948920;28;20882;-88
2022/09/30 11:27:59;;;;;;;5.80;5.00;;;13.60;73.20;;;;;;4954795;28;21407;-88
2022/09/30 11:30:51;;;;;;;4.20;3.63;;;13.60;73.60;;;;;;4969918;28;21260;-88
2022/09/30 11:33:36;;;;;;;5.70;4.77;;;13.60;73.50;;;;;;4952225;28;20459;-88
2022/09/30 11:36:21;;;;;;;6.27;3.87;;;13.60;73.10;;;;;;4970873;28;21075;-88
2022/09/30 11:39:00;;;;;;;4.53;4.13;;;13.60;72.90;;;;;;4953959;28;21146;-88
2022/09/30 11:41:49;;;;;;;4.93;4.23;;;13.70;71.70;;;;;;4972213;28;20469;-88
2022/09/30 11:44:33;;;;;;;7.87;4.87;;;13.60;72.10;;;;;;4966150;28;20874;-88
2022/09/30 11:47:15;;;;;;;6.43;3.97;;;13.70;70.90;;;;;;4951927;28;20908;-88
2022/09/30 11:50:09;;;;;;;6.23;4.20;;;13.70;71.40;;;;;;4972474;28;20545;-88
2022/09/30 11:52:35;;;;;;;4.23;3.83;;;13.70;72.40;;;;;;4958698;28;20462;-88
2022/09/30 11:55:14;;;;;;;6.60;4.70;;;13.60;72.90;;;;;;4954236;28;20505;-88
2022/09/30 11:58:03;;;;;;;5.20;4.70;;;13.60;73.20;;;;;;4976349;28;20460;-87
2022/09/30 12:01:25;;;;;;;6.30;4.77;;;13.50;73.30;;;;;;4971555;28;20501;-88
2022/09/30 12:04:01;;;;;;;7.47;4.80;;;13.50;73.70;;;;;;4949648;28;20460;-88
2022/09/30 12:06:34;;;;;;;5.50;4.90;;;13.50;73.70;;;;;;4947456;28;20461;-88
2022/09/30 12:09:10;;;;;;;5.63;4.10;;;13.50;73.90;;;;;;4975985;28;20514;-88
2022/09/30 12:11:48;;;;;;;5.90;5.23;;;13.50;74.10;;;;;;4956353;28;20536;-88
2022/09/30 12:14:45;;;;;;;6.37;3.90;;;13.40;74.20;;;;;;4955586;28;20525;-88
2022/09/30 12:17:20;;;;;;;4.00;3.60;;;13.40;74.20;;;;;;4968593;28;20540;-88
2022/09/30 12:19:50;;;;;;;5.87;3.57;;;13.50;74.00;;;;;;4955346;28;20470;-88
2022/09/30 12:22:27;;;;;;;4.43;3.87;;;13.50;73.90;;;;;;4971681;28;20458;-88
2022/09/30 12:24:54;;;;;;;5.20;4.10;;;13.50;74.20;;;;;;4970842;28;20467;-88
2022/09/30 12:27:34;;;;;;;5.87;4.40;;;13.50;74.20;;;;;;4950453;28;20545;-88
2022/09/30 12:30:16;;;;;;;4.67;3.67;;;13.60;73.90;;;;;;4967802;28;20528;-87
2022/09/30 12:33:20;;;;;;;3.60;2.90;;;13.60;73.80;;;;;;4961222;28;20892;-88
2022/09/30 12:36:21;;;;;;;4.40;2.93;;;13.70;73.70;;;;;;4968147;28;22396;-88
2022/09/30 12:38:48;;;;;;;4.07;3.10;;;13.80;73.30;;;;;;4969747;28;20515;-88
2022/09/30 12:41:42;;;;;;;5.30;2.60;;;13.80;72.90;;;;;;4953396;28;20470;-88
2022/09/30 12:44:21;;;;;;;3.60;2.83;;;13.90;72.80;;;;;;4954837;28;20501;-88
2022/09/30 12:47:22;;;;;;;2.70;2.50;;;13.90;72.30;;;;;;4955118;28;20469;-88
2022/09/30 12:49:50;;;;;;;2.83;2.33;;;13.90;70.80;;;;;;4954083;28;20470;-88
2022/09/30 12:52:20;;;;;;;2.33;2.10;;;14.00;70.90;;;;;;4974553;28;20470;-88
2022/09/30 12:55:00;;;;;;;4.20;2.90;;;14.00;71.20;;;;;;4955992;28;20525;-88
2022/09/30 12:57:30;;;;;;;3.63;2.30;;;14.10;71.10;;;;;;4953942;28;20516;-88
2022/09/30 13:00:12;;;;;;;6.60;2.70;;;14.10;71.00;;;;;;4952434;28;20827;-88
2022/09/30 13:02:42;;;;;;;4.40;2.80;;;14.10;70.90;;;;;;4953344;28;20463;-88
2022/09/30 13:05:38;;;;;;;3.87;2.47;;;14.20;70.60;;;;;;4953183;28;20964;-88
2022/09/30 13:08:04;;;;;;;2.50;2.30;;;14.20;70.30;;;;;;4942817;28;20467;-88
2022/09/30 13:10:33;;;;;;;4.63;2.10;;;14.30;70.30;;;;;;4972486;28;20534;-88
2022/09/30 13:13:09;;;;;;;2.63;2.40;;;14.30;70.10;;;;;;4952298;28;20976;-88
2022/09/30 13:15:40;;;;;;;3.03;2.73;;;14.30;69.90;;;;;;4955048;28;20462;-88
2022/09/30 13:18:19;;;;;;;4.43;3.07;;;14.40;69.40;;;;;;4971322;28;20478;-88
2022/09/30 13:21:04;;;;;;;3.30;2.93;;;14.40;69.60;;;;;;4974122;28;20453;-88
2022/09/30 13:23:43;;;;;;;3.93;2.63;;;14.40;69.90;;;;;;4974088;28;20485;-88
2022/09/30 13:26:43;;;;;;;2.93;2.57;;;14.40;70.00;;;;;;4956603;28;20473;-87
2022/09/30 13:29:12;;;;;;;3.70;2.77;;;14.40;70.40;;;;;;4954168;28;20467;-88
2022/09/30 13:31:48;;;;;;;4.00;2.80;;;14.50;70.40;;;;;;4969988;28;20896;-88
2022/09/30 13:34:32;;;;;;;3.97;2.47;;;14.50;70.90;;;;;;4969810;28;20864;-88